Time;durP1;ratioP1;P1;durP2;ratioP2;P2;SDS_P1;SDS_P2;PMS_P1;PMS_P2;Temp;Humidity;BMP_temperature;BMP_pressure;BME280_temperature;BME280_humidity;BME280_pressure;Samples;Min_cycle;Max_cycle;Signal;HPM_P1;HPM_P2
2023/03/05 00:00:45;;;;;;;18.67;16.67;;;5.50;35.20;;;;;;10319904;28;20230;-69
2023/03/05 00:05:49;;;;;;;19.10;16.63;;;5.40;35.30;;;;;;10318832;28;20223;-70
2023/03/05 00:10:56;;;;;;;18.13;15.77;;;5.40;35.60;;;;;;10318027;28;20227;-70
2023/03/05 00:16:02;;;;;;;19.67;17.00;;;5.50;35.40;;;;;;10320474;28;20604;-70
2023/03/05 00:21:18;;;;;;;19.33;16.20;;;5.40;35.30;;;;;;10318545;28;20598;-69
2023/03/05 00:26:24;;;;;;;20.40;16.60;;;5.40;35.50;;;;;;10314664;28;21818;-74
2023/03/05 00:31:30;;;;;;;19.63;16.93;;;5.40;35.40;;;;;;10318519;28;20231;-74
2023/03/05 00:36:38;;;;;;;19.93;16.13;;;5.50;35.40;;;;;;10319913;28;20773;-70
2023/03/05 00:41:41;;;;;;;21.43;17.27;;;5.50;35.40;;;;;;10324784;28;20238;-70
2023/03/05 00:46:44;;;;;;;19.90;17.23;;;5.50;35.40;;;;;;10325377;28;20231;-70
2023/03/05 00:51:49;;;;;;;20.37;15.93;;;5.40;35.30;;;;;;10328373;28;20235;-70
2023/03/05 00:56:52;;;;;;;21.13;17.47;;;5.40;35.40;;;;;;10326961;28;20257;-70
2023/03/05 01:01:56;;;;;;;18.23;16.23;;;5.40;35.60;;;;;;10330174;28;20227;-69
2023/03/05 01:07:00;;;;;;;20.77;16.33;;;5.40;35.50;;;;;;10325247;28;20254;-70
2023/03/05 01:12:04;;;;;;;21.80;18.20;;;5.40;35.60;;;;;;10324594;28;20227;-70
2023/03/05 01:17:07;;;;;;;24.73;17.57;;;5.50;35.50;;;;;;10324894;28;20235;-73
2023/03/05 01:22:12;;;;;;;21.70;16.97;;;5.50;35.40;;;;;;10323587;28;20234;-73
2023/03/05 01:27:15;;;;;;;21.87;17.50;;;5.50;35.50;;;;;;10323466;28;20234;-74
2023/03/05 01:32:18;;;;;;;22.27;17.80;;;5.50;35.40;;;;;;10321211;28;20579;-70
2023/03/05 01:37:22;;;;;;;23.07;18.80;;;5.50;35.40;;;;;;10324147;28;20234;-69
2023/03/05 01:42:26;;;;;;;20.97;17.03;;;5.50;35.50;;;;;;10322350;28;20297;-70
2023/03/05 01:47:29;;;;;;;23.00;18.57;;;5.50;35.40;;;;;;10323592;28;21007;-70
2023/03/05 01:52:36;;;;;;;23.67;17.90;;;5.60;35.50;;;;;;10324436;28;20293;-70
2023/03/05 01:57:45;;;;;;;23.80;18.07;;;5.50;35.60;;;;;;10323294;28;20711;-69
2023/03/05 02:02:51;;;;;;;22.97;18.73;;;5.50;36.00;;;;;;10323024;28;20375;-70
2023/03/05 02:07:56;;;;;;;23.43;18.00;;;5.50;35.60;;;;;;10321627;28;20266;-70
2023/03/05 02:13:02;;;;;;;26.60;18.93;;;5.50;35.60;;;;;;10322709;28;20227;-70
2023/03/05 02:18:06;;;;;;;24.13;18.40;;;5.50;35.60;;;;;;10320492;28;20301;-70
2023/03/05 02:23:10;;;;;;;23.97;19.00;;;5.60;35.70;;;;;;10322792;28;20227;-72
2023/03/05 02:28:18;;;;;;;25.03;19.60;;;5.50;35.60;;;;;;10320193;28;20227;-72
2023/03/05 02:33:22;;;;;;;23.80;18.70;;;5.60;35.90;;;;;;10321370;28;20242;-71
2023/03/05 02:38:26;;;;;;;23.30;18.97;;;5.50;35.50;;;;;;10322064;28;20226;-74
2023/03/05 02:43:30;;;;;;;21.97;18.47;;;5.50;35.70;;;;;;10322261;28;20774;-74
2023/03/05 02:48:33;;;;;;;23.90;18.83;;;5.60;35.70;;;;;;10319755;28;20278;-74
2023/03/05 02:53:38;;;;;;;24.43;18.57;;;5.50;35.70;;;;;;10320702;28;20223;-73
2023/03/05 02:58:41;;;;;;;23.37;19.60;;;5.60;35.80;;;;;;10320297;28;20234;-74
2023/03/05 03:03:45;;;;;;;25.60;18.83;;;5.50;35.70;;;;;;10320087;28;20223;-74
2023/03/05 03:08:49;;;;;;;24.90;18.90;;;5.50;35.60;;;;;;10319100;28;20235;-74
2023/03/05 03:13:52;;;;;;;27.40;19.63;;;5.60;36.00;;;;;;10319077;28;20219;-74
2023/03/05 03:18:55;;;;;;;23.43;19.33;;;5.60;35.90;;;;;;10320205;28;20701;-74
2023/03/05 03:24:00;;;;;;;25.53;19.83;;;5.60;35.80;;;;;;10320977;28;20233;-74
2023/03/05 03:29:03;;;;;;;23.87;18.40;;;5.60;35.90;;;;;;10319618;28;20227;-73
2023/03/05 03:34:06;;;;;;;23.90;18.27;;;5.60;35.90;;;;;;10319045;28;20555;-73
2023/03/05 03:39:12;;;;;;;24.07;19.77;;;5.60;35.90;;;;;;10320310;28;20233;-73
2023/03/05 03:44:17;;;;;;;23.20;18.70;;;5.60;36.00;;;;;;10319965;28;20229;-74
2023/03/05 03:49:22;;;;;;;23.83;18.33;;;5.60;35.80;;;;;;10314083;28;20227;-74
2023/03/05 03:54:27;;;;;;;24.70;18.77;;;5.50;36.60;;;;;;10317888;28;20239;-73
2023/03/05 03:59:30;;;;;;;25.07;19.23;;;5.50;36.00;;;;;;10319864;28;20573;-74
2023/03/05 04:04:33;;;;;;;23.97;18.03;;;5.50;36.00;;;;;;10319323;28;20226;-74
2023/03/05 04:09:38;;;;;;;24.87;19.00;;;5.50;36.10;;;;;;10316966;28;20281;-74
2023/03/05 04:14:41;;;;;;;24.03;18.77;;;5.50;36.20;;;;;;10314319;28;20231;-73
2023/03/05 04:19:45;;;;;;;25.03;18.57;;;5.40;36.10;;;;;;10311397;28;20374;-73
2023/03/05 04:24:49;;;;;;;25.90;18.43;;;5.40;36.20;;;;;;10307984;28;20226;-74
2023/03/05 04:29:52;;;;;;;23.43;18.77;;;5.40;36.40;;;;;;10310016;28;20237;-74
2023/03/05 04:34:55;;;;;;;25.67;19.10;;;5.40;36.20;;;;;;10310046;28;20251;-74
2023/03/05 04:40:00;;;;;;;25.53;18.80;;;5.40;36.20;;;;;;10310364;28;20230;-73
2023/03/05 04:45:05;;;;;;;22.10;17.70;;;5.50;36.50;;;;;;10309034;28;20226;-73
2023/03/05 04:50:10;;;;;;;24.43;18.07;;;5.50;36.30;;;;;;10308982;28;20232;-73
2023/03/05 04:55:17;;;;;;;26.50;19.47;;;5.50;36.50;;;;;;10310041;28;20230;-73
2023/03/05 05:00:20;;;;;;;26.07;18.73;;;5.50;36.70;;;;;;10309939;28;20666;-74
2023/03/05 05:05:25;;;;;;;23.73;18.70;;;5.50;36.30;;;;;;10309513;28;20231;-73
2023/03/05 05:10:30;;;;;;;23.60;17.83;;;5.50;36.50;;;;;;10309582;28;20226;-74
2023/03/05 05:15:33;;;;;;;25.43;19.13;;;5.50;36.30;;;;;;10310391;28;20241;-74
2023/03/05 05:20:36;;;;;;;24.43;18.13;;;5.60;36.30;;;;;;10318422;28;20704;-74
2023/03/05 05:25:42;;;;;;;24.53;19.07;;;5.60;36.40;;;;;;10317926;28;20226;-74
2023/03/05 05:30:45;;;;;;;27.13;18.87;;;5.60;36.40;;;;;;10324497;28;20708;-74
2023/03/05 05:35:48;;;;;;;24.93;18.73;;;5.60;36.30;;;;;;10324849;28;20227;-74
2023/03/05 05:40:52;;;;;;;24.27;19.23;;;5.60;36.30;;;;;;10323722;28;20231;-74
2023/03/05 05:45:59;;;;;;;28.40;20.70;;;5.60;36.40;;;;;;10319447;28;20231;-74
2023/03/05 05:51:06;;;;;;;26.40;19.07;;;5.60;36.60;;;;;;10322657;28;20231;-73
2023/03/05 05:56:11;;;;;;;25.57;19.73;;;5.60;36.50;;;;;;10322484;28;20227;-73
2023/03/05 06:01:16;;;;;;;26.13;19.33;;;5.60;36.50;;;;;;10321936;28;20222;-73
2023/03/05 06:06:21;;;;;;;24.13;18.90;;;5.70;36.50;;;;;;10320221;28;20234;-74
2023/03/05 06:11:26;;;;;;;25.30;20.03;;;5.70;36.50;;;;;;10320880;28;20238;-74
2023/03/05 06:16:31;;;;;;;28.23;20.77;;;5.70;36.50;;;;;;10321264;28;20254;-74
2023/03/05 06:21:34;;;;;;;25.87;19.43;;;5.70;36.40;;;;;;10320514;28;20223;-74
2023/03/05 06:26:38;;;;;;;24.83;18.77;;;5.70;36.30;;;;;;10322636;28;20235;-74
2023/03/05 06:31:42;;;;;;;27.37;20.30;;;5.70;36.40;;;;;;10323125;28;20718;-74
2023/03/05 06:36:45;;;;;;;26.00;19.17;;;5.70;36.40;;;;;;10321331;28;20787;-74
2023/03/05 06:41:52;;;;;;;26.00;18.73;;;5.70;36.50;;;;;;10320353;28;20223;-74
2023/03/05 06:46:55;;;;;;;23.60;18.73;;;5.70;36.90;;;;;;10317967;28;20766;-72
2023/03/05 06:51:58;;;;;;;25.00;19.00;;;5.70;36.60;;;;;;10319314;28;20226;-70
2023/03/05 06:57:03;;;;;;;27.57;20.17;;;5.80;36.80;;;;;;10320016;28;20231;-69
2023/03/05 07:02:06;;;;;;;26.20;19.83;;;5.80;36.90;;;;;;10319743;28;20243;-71
2023/03/05 07:07:09;;;;;;;25.67;18.73;;;5.80;36.70;;;;;;10321392;28;20241;-73
2023/03/05 07:12:14;;;;;;;25.90;19.57;;;5.70;36.80;;;;;;10317710;28;20223;-73
2023/03/05 07:17:18;;;;;;;27.50;20.47;;;5.70;37.30;;;;;;10320257;28;20229;-72
2023/03/05 07:22:21;;;;;;;28.80;20.70;;;5.70;37.30;;;;;;10318574;28;20231;-72
2023/03/05 07:27:25;;;;;;;29.03;20.97;;;5.80;37.40;;;;;;10318669;28;20238;-72
2023/03/05 07:32:28;;;;;;;28.07;20.47;;;5.80;37.50;;;;;;10318423;28;20235;-71
2023/03/05 07:37:32;;;;;;;26.27;20.37;;;5.90;37.50;;;;;;10318186;28;20321;-71
2023/03/05 07:42:36;;;;;;;26.97;20.53;;;5.90;37.20;;;;;;10317663;28;20227;-71
2023/03/05 07:47:39;;;;;;;31.87;22.40;;;6.00;37.40;;;;;;10317133;28;20219;-72
2023/03/05 07:52:42;;;;;;;25.90;19.93;;;6.00;37.10;;;;;;10318974;28;20230;-72
2023/03/05 07:57:47;;;;;;;25.63;20.17;;;6.00;37.00;;;;;;10319071;28;20238;-73
2023/03/05 08:02:50;;;;;;;25.43;20.77;;;6.00;37.10;;;;;;10281459;28;20742;-72
2023/03/05 08:07:53;;;;;;;25.30;19.93;;;6.00;37.00;;;;;;10296107;28;20724;-73
2023/03/05 08:12:58;;;;;;;27.37;20.33;;;6.00;36.90;;;;;;10279835;28;20235;-72
2023/03/05 08:18:01;;;;;;;29.23;21.37;;;6.00;37.20;;;;;;10285426;28;20239;-72
2023/03/05 08:23:04;;;;;;;28.07;20.97;;;6.10;37.20;;;;;;10278777;28;20234;-70
2023/03/05 08:28:09;;;;;;;25.83;20.63;;;6.10;37.20;;;;;;10299486;28;20608;-70
2023/03/05 08:33:12;;;;;;;25.80;18.73;;;6.10;37.30;;;;;;10299308;28;20327;-70
2023/03/05 08:38:15;;;;;;;25.43;18.60;;;6.20;37.20;;;;;;10290995;28;20223;-69
2023/03/05 08:43:19;;;;;;;29.00;21.20;;;6.20;37.30;;;;;;10302989;28;20243;-71
2023/03/05 08:48:23;;;;;;;25.93;18.90;;;6.30;37.60;;;;;;10286499;28;20269;-74
2023/03/05 08:53:26;;;;;;;23.83;19.60;;;6.30;37.40;;;;;;10309114;28;20235;-72
2023/03/05 08:58:31;;;;;;;27.03;19.53;;;6.40;37.30;;;;;;10306061;28;20239;-72
2023/03/05 09:03:34;;;;;;;28.13;21.13;;;6.40;37.40;;;;;;10290349;28;20233;-70
2023/03/05 09:08:38;;;;;;;25.97;20.07;;;6.40;37.40;;;;;;10285364;28;20604;-70
2023/03/05 09:13:42;;;;;;;27.47;20.17;;;6.50;37.40;;;;;;10289453;28;20624;-70
2023/03/05 09:18:45;;;;;;;29.70;21.23;;;6.50;38.40;;;;;;10309751;28;20238;-70
2023/03/05 09:23:48;;;;;;;24.70;19.33;;;6.50;37.50;;;;;;10302709;28;20227;-70
2023/03/05 09:28:53;;;;;;;26.20;19.17;;;6.60;37.70;;;;;;10327466;28;20230;-70
2023/03/05 09:33:56;;;;;;;26.93;20.07;;;6.60;38.10;;;;;;10326073;28;20742;-70
2023/03/05 09:38:59;;;;;;;26.13;19.73;;;6.70;37.80;;;;;;10326538;28;20719;-69
2023/03/05 09:44:22;;;;;;;24.23;18.87;;;6.70;37.80;;;;;;10310693;28;20234;-70
2023/03/05 09:49:35;;;;;;;26.60;19.13;;;6.70;38.20;;;;;;10298391;28;20715;-70
2023/03/05 09:54:41;;;;;;;23.83;17.67;;;6.80;38.30;;;;;;10291743;28;20321;-70
2023/03/05 09:59:50;;;;;;;24.77;17.53;;;6.90;37.70;;;;;;10299823;28;20245;-69
2023/03/05 10:05:00;;;;;;;27.27;19.33;;;6.90;37.90;;;;;;10313388;28;20231;-70
2023/03/05 10:10:09;;;;;;;26.67;18.70;;;7.00;37.90;;;;;;10310206;28;20603;-70
2023/03/05 10:15:16;;;;;;;24.20;18.20;;;7.00;37.60;;;;;;10316206;28;20234;-70
2023/03/05 10:20:44;;;;;;;22.27;16.87;;;6.90;37.90;;;;;;10311487;28;20231;-70
2023/03/05 10:25:58;;;;;;;22.57;17.03;;;6.90;38.00;;;;;;10293440;28;20227;-70
2023/03/05 10:31:13;;;;;;;22.37;16.37;;;7.00;38.40;;;;;;10322304;28;20223;-70
2023/03/05 10:36:45;;;;;;;28.17;17.67;;;7.00;38.40;;;;;;10297655;28;20230;-69
2023/03/05 10:42:04;;;;;;;21.07;16.67;;;7.10;38.10;;;;;;10283647;28;20305;-71
2023/03/05 10:47:16;;;;;;;25.00;17.20;;;7.20;38.10;;;;;;10319038;28;20230;-71
2023/03/05 10:52:24;;;;;;;21.30;16.83;;;7.20;38.00;;;;;;10322928;28;20695;-71
2023/03/05 10:57:30;;;;;;;21.60;17.03;;;7.30;37.60;;;;;;10320094;28;20234;-71
2023/03/05 11:02:56;;;;;;;21.30;15.73;;;7.40;37.60;;;;;;10320304;28;20285;-71
2023/03/05 11:08:00;;;;;;;21.87;15.73;;;7.40;37.70;;;;;;10319866;28;20663;-71
2023/03/05 11:13:25;;;;;;;24.17;17.43;;;7.50;37.30;;;;;;10317780;28;20223;-71
2023/03/05 11:18:33;;;;;;;21.93;16.07;;;7.50;37.60;;;;;;10315457;28;20222;-71
2023/03/05 11:23:36;;;;;;;21.17;16.17;;;7.50;37.10;;;;;;10316288;28;20321;-69
2023/03/05 11:28:42;;;;;;;23.10;17.43;;;7.50;37.10;;;;;;10318265;28;20241;-70
2023/03/05 11:33:57;;;;;;;24.27;18.20;;;7.50;37.30;;;;;;10319361;28;20227;-69
2023/03/05 11:39:10;;;;;;;22.30;18.63;;;7.40;37.40;;;;;;10315625;28;20612;-70
2023/03/05 11:44:15;;;;;;;20.17;16.33;;;7.40;37.60;;;;;;10318104;28;21065;-70
2023/03/05 11:49:25;;;;;;;22.80;16.60;;;7.40;37.40;;;;;;10317742;28;20234;-70
2023/03/05 11:54:33;;;;;;;25.20;16.63;;;7.50;37.60;;;;;;10321120;28;20600;-70
2023/03/05 11:59:39;;;;;;;21.10;16.37;;;7.40;37.40;;;;;;10315795;28;20574;-70
2023/03/05 12:04:44;;;;;;;19.87;14.77;;;7.50;37.20;;;;;;10320113;28;20615;-70
2023/03/05 12:09:49;;;;;;;21.40;15.47;;;7.50;37.20;;;;;;10316389;28;20234;-70
2023/03/05 12:14:58;;;;;;;21.33;14.53;;;7.60;37.30;;;;;;10320848;28;20235;-70
2023/03/05 12:20:08;;;;;;;18.57;13.93;;;7.60;37.10;;;;;;10317947;28;20239;-70
2023/03/05 12:25:25;;;;;;;19.87;15.07;;;7.60;37.10;;;;;;10321126;28;20233;-70
2023/03/05 12:30:54;;;;;;;20.43;15.67;;;7.70;37.10;;;;;;10320756;28;20231;-70
2023/03/05 12:36:31;;;;;;;19.27;14.77;;;7.70;36.90;;;;;;10328620;28;20226;-70
2023/03/05 12:41:36;;;;;;;18.63;14.23;;;7.70;36.80;;;;;;10323657;28;20226;-69
2023/03/05 12:46:40;;;;;;;18.67;14.77;;;7.70;36.80;;;;;;10327001;28;20717;-70
2023/03/05 12:51:44;;;;;;;19.17;13.90;;;7.70;36.70;;;;;;10326196;28;20222;-69
2023/03/05 12:56:50;;;;;;;16.73;13.40;;;7.70;36.40;;;;;;10325328;28;20231;-70
2023/03/05 13:01:57;;;;;;;15.77;11.93;;;7.70;36.40;;;;;;10322310;28;20226;-70
2023/03/05 13:07:03;;;;;;;14.77;12.47;;;7.70;36.30;;;;;;10323626;28;20230;-70
2023/03/05 13:12:13;;;;;;;14.40;11.63;;;7.70;36.20;;;;;;10322176;28;20259;-71
2023/03/05 13:17:38;;;;;;;13.90;11.27;;;7.70;36.00;;;;;;10320296;28;20281;-70
2023/03/05 13:22:41;;;;;;;13.10;10.33;;;7.70;34.60;;;;;;10321905;28;20230;-70
2023/03/05 13:27:45;;;;;;;11.07;9.47;;;7.70;35.60;;;;;;10323186;28;20227;-70
2023/03/05 13:32:51;;;;;;;12.10;9.50;;;7.70;35.50;;;;;;10325780;28;20238;-72
2023/03/05 13:37:55;;;;;;;12.97;9.83;;;7.70;35.20;;;;;;10321245;28;20231;-71
2023/03/05 13:43:12;;;;;;;9.53;8.47;;;7.70;35.10;;;;;;10323692;28;20222;-70
2023/03/05 13:48:19;;;;;;;10.80;8.80;;;7.70;34.10;;;;;;10320397;28;20305;-72
2023/03/05 13:53:24;;;;;;;9.37;8.27;;;7.70;34.60;;;;;;10324634;28;20629;-72
2023/03/05 13:58:51;;;;;;;11.10;8.50;;;7.70;34.40;;;;;;10325826;28;20235;-72
2023/03/05 14:03:56;;;;;;;11.33;7.97;;;7.70;33.20;;;;;;10322622;28;20227;-72
2023/03/05 14:09:07;;;;;;;9.00;7.57;;;7.60;34.00;;;;;;10321502;28;20253;-72
2023/03/05 14:14:17;;;;;;;9.70;8.00;;;7.60;33.40;;;;;;10321029;28;20680;-71
2023/03/05 14:19:36;;;;;;;11.67;9.03;;;7.60;33.30;;;;;;10315603;28;20239;-71
2023/03/05 14:24:39;;;;;;;9.93;8.13;;;7.50;32.80;;;;;;10318785;28;20227;-72
2023/03/05 14:29:46;;;;;;;12.57;8.93;;;7.60;34.10;;;;;;10316357;28;20238;-72
2023/03/05 14:34:54;;;;;;;11.33;9.53;;;7.60;33.70;;;;;;10318509;28;20223;-72
2023/03/05 14:40:00;;;;;;;10.73;9.10;;;7.60;34.30;;;;;;10318495;28;20231;-71
2023/03/05 14:45:12;;;;;;;11.70;8.50;;;7.60;33.90;;;;;;10315880;28;20230;-71
2023/03/05 14:50:17;;;;;;;10.80;8.43;;;7.60;33.60;;;;;;10318464;28;20666;-71
2023/03/05 14:55:23;;;;;;;12.20;8.53;;;7.60;34.20;;;;;;10316225;28;20234;-71
2023/03/05 15:00:28;;;;;;;12.30;9.10;;;7.70;33.90;;;;;;10315324;28;20322;-71
2023/03/05 15:05:31;;;;;;;9.03;8.07;;;7.70;33.90;;;;;;10318240;28;20234;-72
2023/03/05 15:10:35;;;;;;;11.27;8.87;;;7.70;33.90;;;;;;10318265;28;20245;-73
2023/03/05 15:15:41;;;;;;;12.67;9.23;;;7.70;33.70;;;;;;10319001;28;20281;-73
2023/03/05 15:20:46;;;;;;;13.07;10.37;;;7.70;33.40;;;;;;10318697;28;20318;-73
2023/03/05 15:25:50;;;;;;;12.77;9.47;;;7.60;33.70;;;;;;10317164;28;20223;-73
2023/03/05 15:30:55;;;;;;;12.60;9.00;;;7.70;34.00;;;;;;10318857;28;20230;-72
2023/03/05 15:36:02;;;;;;;12.13;9.03;;;7.70;34.10;;;;;;10315714;28;20844;-73
2023/03/05 15:41:05;;;;;;;12.00;9.63;;;7.70;34.10;;;;;;10319130;28;20230;-72
2023/03/05 15:46:10;;;;;;;11.23;9.10;;;7.70;34.20;;;;;;10319210;28;20607;-75
2023/03/05 15:51:13;;;;;;;12.90;9.73;;;7.80;34.10;;;;;;10324493;28;20655;-75
2023/03/05 15:56:16;;;;;;;11.27;9.37;;;7.70;34.20;;;;;;10326213;28;20246;-76
2023/03/05 16:01:22;;;;;;;12.47;10.07;;;7.80;34.20;;;;;;10327154;28;20285;-76
2023/03/05 16:06:25;;;;;;;9.73;8.43;;;7.80;33.90;;;;;;10310274;28;20234;-76
2023/03/05 16:11:30;;;;;;;10.60;9.17;;;7.70;33.90;;;;;;10312829;28;20227;-72
2023/03/05 16:16:36;;;;;;;9.73;8.30;;;7.80;33.90;;;;;;10313309;28;20231;-72
2023/03/05 16:21:39;;;;;;;12.20;8.73;;;7.80;33.80;;;;;;10313750;28;20229;-71
2023/03/05 16:26:42;;;;;;;9.27;7.70;;;7.70;34.10;;;;;;10315387;28;20604;-69
2023/03/05 16:31:47;;;;;;;11.30;8.97;;;7.70;35.20;;;;;;10314778;28;20222;-70
2023/03/05 16:36:52;;;;;;;10.67;9.17;;;7.80;34.10;;;;;;10312784;28;20308;-70
2023/03/05 16:41:56;;;;;;;10.37;8.53;;;7.70;33.90;;;;;;10313020;28;20227;-70
2023/03/05 16:47:01;;;;;;;10.77;9.00;;;7.70;34.20;;;;;;10311096;28;20797;-72
2023/03/05 16:52:04;;;;;;;10.17;8.83;;;7.60;33.90;;;;;;10314334;28;20775;-73
2023/03/05 16:57:22;;;;;;;9.40;8.07;;;7.60;34.00;;;;;;10315915;28;20592;-72
2023/03/05 17:02:27;;;;;;;11.10;9.13;;;7.60;34.10;;;;;;10315890;28;20227;-71
2023/03/05 17:07:30;;;;;;;12.10;9.87;;;7.60;34.00;;;;;;10316546;28;20243;-72
2023/03/05 17:12:33;;;;;;;10.30;8.10;;;7.60;34.00;;;;;;10315950;28;20700;-71
2023/03/05 17:17:39;;;;;;;12.10;9.43;;;7.60;34.00;;;;;;10313362;28;20231;-70
2023/03/05 17:22:42;;;;;;;12.17;10.43;;;7.60;33.80;;;;;;10323215;28;20226;-71
2023/03/05 17:27:46;;;;;;;14.30;11.47;;;7.60;34.00;;;;;;10324626;28;20235;-71
2023/03/05 17:32:53;;;;;;;14.13;10.97;;;7.60;34.00;;;;;;10324973;28;20223;-71
2023/03/05 17:37:56;;;;;;;18.50;14.30;;;7.50;33.70;;;;;;10323394;28;20245;-71
2023/03/05 17:42:59;;;;;;;19.50;15.33;;;7.50;34.10;;;;;;10321195;28;20227;-71
2023/03/05 17:48:04;;;;;;;14.93;12.33;;;7.50;35.00;;;;;;10321310;28;20824;-71
2023/03/05 17:53:08;;;;;;;21.57;15.73;;;7.40;35.00;;;;;;10321877;28;20234;-71
2023/03/05 17:58:11;;;;;;;15.83;11.87;;;7.50;34.80;;;;;;10323565;28;20238;-71
2023/03/05 18:03:16;;;;;;;14.27;11.47;;;7.50;34.70;;;;;;10320672;28;20223;-71
2023/03/05 18:08:19;;;;;;;12.90;10.70;;;7.50;34.40;;;;;;10322050;28;20277;-72
2023/03/05 18:13:22;;;;;;;17.73;13.07;;;7.50;34.40;;;;;;10321873;28;20933;-72
2023/03/05 18:18:27;;;;;;;14.77;12.03;;;7.50;34.50;;;;;;10316210;28;20234;-72
2023/03/05 18:23:30;;;;;;;11.33;9.60;;;7.50;34.40;;;;;;10321357;28;20737;-72
2023/03/05 18:28:33;;;;;;;13.23;11.83;;;7.50;34.50;;;;;;10319999;28;20662;-73
2023/03/05 18:33:38;;;;;;;17.10;12.70;;;7.50;34.50;;;;;;10320795;28;20227;-73
2023/03/05 18:38:41;;;;;;;14.77;11.80;;;7.50;34.40;;;;;;10318865;28;20238;-72
2023/03/05 18:43:44;;;;;;;14.57;11.93;;;7.40;34.50;;;;;;10319345;28;20231;-73
2023/03/05 18:48:49;;;;;;;16.90;13.80;;;7.40;34.60;;;;;;10319194;28;20238;-73
2023/03/05 18:53:53;;;;;;;16.63;13.77;;;7.50;34.70;;;;;;10317739;28;20511;-72
2023/03/05 18:58:57;;;;;;;13.50;12.00;;;7.50;34.70;;;;;;10316460;28;21168;-72
2023/03/05 19:04:03;;;;;;;13.40;11.63;;;7.50;34.70;;;;;;10322091;28;20238;-72
2023/03/05 19:15:02;;;;;;;12.17;10.87;;;7.50;34.60;;;;;;10317503;28;20607;-72
2023/03/05 19:20:11;;;;;;;11.43;9.90;;;7.60;34.70;;;;;;10309727;28;20570;-72
2023/03/05 19:25:14;;;;;;;14.33;12.70;;;7.50;34.60;;;;;;10320306;28;20231;-73
2023/03/05 19:30:17;;;;;;;16.27;13.93;;;7.60;34.70;;;;;;10315467;28;20226;-73
2023/03/05 19:35:22;;;;;;;14.23;12.60;;;7.60;34.70;;;;;;10318188;28;20223;-71
2023/03/05 19:40:25;;;;;;;18.10;14.57;;;7.60;34.80;;;;;;10316821;28;20606;-71
2023/03/05 19:45:32;;;;;;;15.97;13.70;;;7.60;34.60;;;;;;10316450;28;20925;-73
2023/03/05 19:50:37;;;;;;;13.40;11.37;;;7.50;34.40;;;;;;10316963;28;20303;-73
2023/03/05 19:55:40;;;;;;;16.20;13.57;;;7.50;34.60;;;;;;10319981;28;20922;-71
2023/03/05 20:00:43;;;;;;;18.03;14.43;;;7.50;34.70;;;;;;10318737;28;20231;-71
2023/03/05 20:05:48;;;;;;;17.70;14.67;;;7.40;34.70;;;;;;10319479;28;20222;-73
2023/03/05 20:10:51;;;;;;;17.97;13.97;;;7.40;34.70;;;;;;10315546;28;20241;-72
2023/03/05 20:15:54;;;;;;;17.33;14.47;;;7.50;34.80;;;;;;10314389;28;20227;-72
2023/03/05 20:21:01;;;;;;;20.83;15.63;;;7.50;34.80;;;;;;10317718;28;20223;-72
2023/03/05 20:26:05;;;;;;;16.13;13.10;;;7.40;34.70;;;;;;10315618;28;20228;-72
2023/03/05 20:31:08;;;;;;;15.20;12.33;;;7.50;34.80;;;;;;10317734;28;20227;-71
2023/03/05 20:36:13;;;;;;;14.73;12.23;;;7.50;34.80;;;;;;10315389;28;20786;-72
2023/03/05 20:41:20;;;;;;;14.40;11.60;;;7.50;34.80;;;;;;10316812;28;20226;-72
2023/03/05 20:46:25;;;;;;;12.73;10.93;;;7.50;34.80;;;;;;10314332;28;20333;-72
2023/03/05 20:51:33;;;;;;;12.40;10.57;;;7.50;34.80;;;;;;10317326;28;20375;-72
2023/03/05 20:56:37;;;;;;;12.67;10.43;;;7.50;34.90;;;;;;10325549;28;20231;-72
2023/03/05 21:01:40;;;;;;;14.57;9.70;;;7.40;34.90;;;;;;10325526;28;20839;-71
2023/03/05 21:06:45;;;;;;;12.17;10.03;;;7.40;34.80;;;;;;10325571;28;20242;-72
2023/03/05 21:11:48;;;;;;;13.87;10.87;;;7.40;34.90;;;;;;10322466;28;20223;-71
2023/03/05 21:16:52;;;;;;;14.93;11.03;;;7.40;34.90;;;;;;10324060;28;20234;-71
2023/03/05 21:21:56;;;;;;;11.63;9.57;;;7.40;35.00;;;;;;10324613;28;20223;-71
2023/03/05 21:26:59;;;;;;;13.70;11.70;;;7.40;34.90;;;;;;10322734;28;20223;-71
2023/03/05 21:32:03;;;;;;;16.43;13.47;;;7.30;34.70;;;;;;10307902;28;20251;-71
2023/03/05 21:37:08;;;;;;;16.10;12.20;;;7.30;34.80;;;;;;10308420;28;20365;-72
2023/03/05 21:42:12;;;;;;;15.03;11.43;;;7.20;34.80;;;;;;10315099;28;20227;-75
2023/03/05 21:47:15;;;;;;;13.23;10.97;;;7.20;34.80;;;;;;10314292;28;20758;-71
2023/03/05 21:52:21;;;;;;;15.27;11.33;;;7.10;34.80;;;;;;10311381;28;20226;-71
2023/03/05 21:57:26;;;;;;;14.10;10.93;;;7.00;34.80;;;;;;10310046;28;20277;-71
2023/03/05 22:02:29;;;;;;;14.13;11.20;;;7.00;35.10;;;;;;10312259;28;20234;-71
2023/03/05 22:07:34;;;;;;;14.60;11.63;;;7.00;35.00;;;;;;10311325;28;20235;-71
2023/03/05 22:13:12;;;;;;;18.17;11.83;;;7.00;35.00;;;;;;10305720;28;20230;-71
2023/03/05 22:18:18;;;;;;;14.63;11.00;;;7.00;35.50;;;;;;10307131;28;20261;-71
2023/03/05 22:23:26;;;;;;;13.87;10.40;;;7.00;34.80;;;;;;10310092;28;20790;-71
2023/03/05 22:28:29;;;;;;;13.67;10.83;;;7.00;34.80;;;;;;10305041;28;20231;-71
2023/03/05 22:33:32;;;;;;;13.90;11.13;;;7.00;35.10;;;;;;10310850;28;20687;-72
2023/03/05 22:38:37;;;;;;;15.00;11.27;;;6.90;34.60;;;;;;10315990;28;20234;-72
2023/03/05 22:43:41;;;;;;;13.93;10.90;;;6.90;34.70;;;;;;10314935;28;20226;-72
2023/03/05 22:48:45;;;;;;;13.63;10.57;;;6.90;34.80;;;;;;10316377;28;20223;-72
2023/03/05 22:53:49;;;;;;;13.97;10.77;;;6.90;34.80;;;;;;10314694;28;20227;-72
2023/03/05 22:58:52;;;;;;;13.30;10.30;;;6.90;34.70;;;;;;10315677;28;20678;-75
2023/03/05 23:04:49;;;;;;;15.60;12.83;;;6.90;34.80;;;;;;10314450;28;20360;-73
2023/03/05 23:09:55;;;;;;;14.40;11.07;;;6.90;34.80;;;;;;10313402;28;20226;-76
2023/03/05 23:14:59;;;;;;;15.07;10.53;;;6.90;34.80;;;;;;10314310;28;20223;-71
2023/03/05 23:20:04;;;;;;;14.17;10.43;;;6.90;34.90;;;;;;10316320;28;20223;-74
2023/03/05 23:25:09;;;;;;;12.70;10.23;;;6.90;34.90;;;;;;10320475;28;20227;-76
2023/03/05 23:30:19;;;;;;;11.33;9.87;;;6.90;34.70;;;;;;10324864;28;20341;-75
2023/03/05 23:35:24;;;;;;;16.10;11.17;;;6.80;34.80;;;;;;10322352;28;20258;-75
2023/03/05 23:40:31;;;;;;;13.27;10.53;;;6.80;34.80;;;;;;10323979;28;20253;-76
2023/03/05 23:45:35;;;;;;;13.50;10.27;;;6.80;34.80;;;;;;10323401;28;20223;-76
2023/03/05 23:50:41;;;;;;;12.57;10.23;;;6.80;34.90;;;;;;10324174;28;20241;-76
2023/03/05 23:55:46;;;;;;;12.07;10.20;;;6.70;34.90;;;;;;10323588;28;20238;-76
